Main page
METAR-TAF:

METAR-TAF

Airports :

McGregor Executive Airport

Waco, Texas, United States

latitude: 31-29N, longitude: 097-19W, elevation: 590 ft

Current weather observation

The report was made 55 minutes ago, at 04:56 UTC
Wind 5 mph from the East/Northeast
Temperature 55°F
Humidity 67%
Pressure 29.78 in. Hg
Visibility: 10 miles
Clear sky

METAR: KPWG 150456Z AUTO 07004KT 10SM CLR 13/07 A2978 RMK AO2 SLP081 T01280067 $

Time: 23:51 (05:51 UTC)


TAF: missing

Weather observations and forecasts of more than 4000 airports (METAR and TAF reports).

The available stations are represented by yellow and red dots on the map.

Hover mouse over dot to see the name of the station.

Then click to see weather observations and forecasts.

To change the map : click on the green buttons with a black cross to zoom in, on the green button with a dash to zoom out, or on the green arrows for adjacent maps.


METAR-TAF: